EPLL

Łódź Władysław Reymont Airport

Łódź, Poland
METAR EPLL 241100Z 27022KT 9999 BKN024 10/05 Q1016
Observed Flight Rules
Sep-24 @ 11:00 UTC (33 minutes ago) Marginal Visual Flight Rules
Wind Visibility Clouds
270° at 22 knots 10,000+ meters
  • Broken at 2,400' AGL
Temperatures Readings
Current 10°C / 50°F
Dewpoint 5°C / 41°F
Humidity 71%
Altimeter 30" Hg
Pressure 1016 hPa
Elevation 184
METAR EPLL 241100Z 27022KT 9999 BKN024 10/05 Q1016
Observed Flight Rules
Sep-24 @ 11:00 UTC
(33 minutes ago)
MVFR
Wind Visibility
270° at 22 knots 10,000+ meters
Clouds
  • Broken at 2,400' AGL
Temperature Dewpoint
10°C / 50°F 5°C / 41°F
Humidity Altimeter Pressure
71% 30" Hg 1016 hPa